createdAt,value
2024-03-21T00:07:58.710Z,34.70
2024-03-21T00:28:40.101Z,34.80
2024-03-21T00:44:01.822Z,34.70
2024-03-21T00:59:39.761Z,35.60
2024-03-21T01:47:05.585Z,35.40
2024-03-21T02:02:45.336Z,34.30
2024-03-21T02:33:37.624Z,34.40
2024-03-21T02:49:03.596Z,35.00
2024-03-21T03:04:50.870Z,35.00
2024-03-21T03:35:09.927Z,35.00
2024-03-21T03:50:19.907Z,35.20
2024-03-21T04:21:14.079Z,35.00
2024-03-21T04:36:23.474Z,35.60
2024-03-21T04:51:23.874Z,35.90
2024-03-21T05:06:24.515Z,36.00
2024-03-21T05:21:24.885Z,35.80
2024-03-21T06:09:10.043Z,35.10
2024-03-21T06:23:57.475Z,35.90
2024-03-21T06:38:57.795Z,35.50
2024-03-21T06:53:58.177Z,35.40
2024-03-21T07:15:52.446Z,34.70
2024-03-21T07:30:52.764Z,35.20
2024-03-21T07:45:53.056Z,34.60
2024-03-21T08:00:53.364Z,34.50
2024-03-21T08:15:55.121Z,34.80
2024-03-21T08:30:54.010Z,35.20
2024-03-21T08:45:54.383Z,35.40
2024-03-21T09:00:54.687Z,36.00
2024-03-21T09:15:54.913Z,36.20
2024-03-21T09:30:55.304Z,36.50
2024-03-21T09:45:55.641Z,36.70
2024-03-21T10:00:56.357Z,37.00
2024-03-21T10:15:56.183Z,37.00
2024-03-21T10:30:59.012Z,37.70
2024-03-21T10:45:56.860Z,38.70
2024-03-21T11:00:57.215Z,39.20
2024-03-21T11:15:57.541Z,40.80
2024-03-21T11:30:57.818Z,40.70
2024-03-21T11:45:58.144Z,40.00
2024-03-21T12:00:58.659Z,40.40
2024-03-21T12:15:58.897Z,40.40
2024-03-21T12:30:59.257Z,41.30
2024-03-21T12:45:59.494Z,40.90
2024-03-21T13:00:59.822Z,40.70
2024-03-21T13:16:00.087Z,40.70
2024-03-21T13:31:00.715Z,40.90
2024-03-21T13:46:02.406Z,40.40
2024-03-21T14:01:01.015Z,40.40
2024-03-21T14:16:01.293Z,40.80
2024-03-21T14:31:01.583Z,41.00
2024-03-21T14:46:03.469Z,41.80
2024-03-21T15:01:04.636Z,42.30
2024-03-21T15:16:02.655Z,42.60
2024-03-21T15:31:02.830Z,42.70
2024-03-21T15:46:06.554Z,42.90
2024-03-21T16:01:06.603Z,42.80
2024-03-21T16:16:34.344Z,42.90
2024-03-21T16:31:28.573Z,43.40
2024-03-21T16:46:33.540Z,43.30
2024-03-21T17:01:30.666Z,43.50
2024-03-21T17:16:29.421Z,43.50
2024-03-21T17:31:29.949Z,43.80
2024-03-21T17:46:30.259Z,44.10
2024-03-21T18:01:30.419Z,44.20
2024-03-21T18:16:33.255Z,44.70
2024-03-21T18:31:31.053Z,44.50
2024-03-21T18:46:31.398Z,44.50
2024-03-21T19:01:31.683Z,44.50
2024-03-21T19:16:33.356Z,44.80
2024-03-21T19:31:32.468Z,44.90
2024-03-21T19:46:32.658Z,45.10
2024-03-21T20:01:32.937Z,45.20
2024-03-21T20:16:37.503Z,45.50
2024-03-21T20:31:33.605Z,45.50
2024-03-21T20:46:33.985Z,45.50
2024-03-21T21:01:34.155Z,45.50
2024-03-21T21:16:34.585Z,45.60
2024-03-21T21:31:36.175Z,45.60
2024-03-21T21:46:35.149Z,45.90
2024-03-21T22:01:35.629Z,45.80
2024-03-21T22:16:35.727Z,45.70
2024-03-21T22:31:36.097Z,45.60
2024-03-21T22:46:36.416Z,45.50
2024-03-21T23:01:36.708Z,45.50
2024-03-21T23:16:37.035Z,45.70
2024-03-21T23:31:37.268Z,45.40
2024-03-21T23:46:39.038Z,45.30
